Time;durP1;ratioP1;P1;durP2;ratioP2;P2;SDS_P1;SDS_P2;PMS_P1;PMS_P2;Temp;Humidity;BMP_temperature;BMP_pressure;BME280_temperature;BME280_humidity;BME280_pressure;Samples;Min_cycle;Max_cycle;Signal;HPM_P1;HPM_P2
2022/08/10 00:01:29;;;;;;;4.65;1.23;;;12.50;99.90;;;;;;4979809;28;20033;-71
2022/08/10 00:03:56;;;;;;;8.50;1.48;;;12.70;99.90;;;;;;4980642;28;20570;-68
2022/08/10 00:06:24;;;;;;;3.15;1.35;;;13.00;99.90;;;;;;4979729;28;20483;-67
2022/08/10 00:08:51;;;;;;;5.00;1.85;;;13.20;99.90;;;;;;4981051;28;20110;-67
2022/08/10 00:11:19;;;;;;;5.00;1.40;;;13.30;99.90;;;;;;4980272;28;20471;-67
2022/08/10 00:13:46;;;;;;;7.50;1.77;;;13.40;99.90;;;;;;4980237;28;20053;-66
2022/08/10 00:16:13;;;;;;;6.85;1.70;;;13.60;99.90;;;;;;4979153;28;20538;-68
2022/08/10 00:18:41;;;;;;;3.17;1.15;;;13.70;99.90;;;;;;4975673;28;20125;-72
2022/08/10 00:21:09;;;;;;;5.32;1.58;;;13.80;99.90;;;;;;4979357;28;20035;-74
2022/08/10 00:23:37;;;;;;;5.53;1.20;;;13.90;99.90;;;;;;4980053;28;20066;-70
2022/08/10 00:26:05;;;;;;;7.30;1.50;;;13.90;99.90;;;;;;4980160;28;20030;-71
2022/08/10 00:28:33;;;;;;;5.40;1.63;;;14.00;99.90;;;;;;4978591;28;20518;-72
2022/08/10 00:31:00;;;;;;;5.70;1.52;;;14.00;99.90;;;;;;4979386;28;20460;-70
2022/08/10 00:33:28;;;;;;;7.20;1.60;;;14.10;99.90;;;;;;4978502;28;20026;-70
2022/08/10 00:35:55;;;;;;;7.35;2.50;;;14.20;99.90;;;;;;4980514;28;20383;-71
2022/08/10 00:38:23;;;;;;;4.78;2.00;;;14.30;99.90;;;;;;4978491;28;20034;-71
2022/08/10 00:40:50;;;;;;;4.43;1.83;;;14.30;99.90;;;;;;4979846;28;20029;-70
2022/08/10 00:43:17;;;;;;;8.23;1.40;;;14.40;99.90;;;;;;4978632;28;20026;-70
2022/08/10 00:45:45;;;;;;;5.45;1.85;;;14.50;99.90;;;;;;4979356;28;20026;-71
2022/08/10 00:48:12;;;;;;;6.85;1.92;;;14.50;99.90;;;;;;4979913;28;20245;-69
2022/08/10 00:50:39;;;;;;;6.43;1.98;;;14.70;99.90;;;;;;4978133;28;20030;-68
2022/08/10 00:53:07;;;;;;;13.02;2.40;;;14.70;99.90;;;;;;4979897;28;20030;-69
2022/08/10 00:55:35;;;;;;;8.50;2.22;;;14.80;99.90;;;;;;4978276;28;20413;-70
2022/08/10 00:58:02;;;;;;;12.43;1.85;;;15.00;99.90;;;;;;4979353;28;20042;-72
2022/08/10 01:00:30;;;;;;;8.30;2.45;;;15.30;99.90;;;;;;4978775;28;20029;-70
2022/08/10 01:02:58;;;;;;;9.23;3.33;;;15.40;99.90;;;;;;4978833;28;20022;-73
2022/08/10 01:05:25;;;;;;;6.55;2.10;;;15.50;99.90;;;;;;4978587;28;20202;-71
2022/08/10 01:08:08;;;;;;;7.55;1.92;;;15.40;99.90;;;;;;4978643;28;20349;-72
2022/08/10 01:11:13;;;;;;;9.60;2.97;;;15.60;99.90;;;;;;4977094;28;20040;-73
2022/08/10 01:13:48;;;;;;;11.57;2.83;;;15.60;99.90;;;;;;4978149;28;20328;-72
2022/08/10 01:16:34;;;;;;;7.90;1.85;;;15.70;99.90;;;;;;4979361;28;20045;-69
2022/08/10 01:19:37;;;;;;;9.23;2.22;;;15.70;99.90;;;;;;4980116;28;20026;-69
2022/08/10 01:22:22;;;;;;;11.03;2.83;;;15.70;99.90;;;;;;4979254;28;20035;-69
2022/08/10 01:25:11;;;;;;;7.28;2.22;;;15.80;99.90;;;;;;4978932;28;20039;-68
2022/08/10 01:28:04;;;;;;;5.78;1.35;;;15.80;99.90;;;;;;4977693;28;20391;-67
2022/08/10 01:30:34;;;;;;;8.07;1.45;;;15.80;99.90;;;;;;4978405;28;20105;-68
2022/08/10 01:33:01;;;;;;;8.80;1.95;;;15.80;99.90;;;;;;4978682;28;20030;-69
2022/08/10 01:35:55;;;;;;;9.63;1.52;;;15.90;99.90;;;;;;4977810;28;20042;-68
2022/08/10 01:38:44;;;;;;;7.00;1.55;;;16.10;99.90;;;;;;4978175;28;20053;-69
2022/08/10 01:41:42;;;;;;;8.07;2.05;;;16.30;99.90;;;;;;4978734;28;20034;-70
2022/08/10 01:44:33;;;;;;;5.45;1.20;;;16.60;99.90;;;;;;4977782;28;20352;-69
2022/08/10 01:50:06;;;;;;;5.65;1.80;;;16.80;99.90;;;;;;4977068;28;20042;-73
2022/08/10 01:52:36;;;;;;;5.28;1.05;;;16.80;99.90;;;;;;4978011;28;20019;-72
2022/08/10 01:55:04;;;;;;;8.52;1.30;;;16.90;99.90;;;;;;4978557;28;20487;-73
2022/08/10 01:57:34;;;;;;;3.00;0.85;;;17.00;99.90;;;;;;4977792;28;20070;-74
2022/08/10 02:00:02;;;;;;;3.72;0.93;;;17.10;99.90;;;;;;4977962;28;20049;-69
2022/08/10 02:02:31;;;;;;;8.15;1.02;;;17.30;99.90;;;;;;4975770;28;20038;-73
2022/08/10 02:05:01;;;;;;;7.50;1.60;;;17.50;99.90;;;;;;4976777;28;20133;-71
2022/08/10 02:07:33;;;;;;;9.43;2.55;;;17.50;99.90;;;;;;4975507;28;20054;-72
2022/08/10 02:10:06;;;;;;;7.63;1.88;;;17.70;99.90;;;;;;4976090;28;20030;-73
2022/08/10 02:12:35;;;;;;;3.58;1.50;;;17.90;99.90;;;;;;4977310;28;20100;-71
2022/08/10 02:15:14;;;;;;;4.38;1.10;;;17.80;99.90;;;;;;4977497;28;20823;-73
2022/08/10 02:18:02;;;;;;;6.10;1.38;;;17.70;99.90;;;;;;4976998;28;20069;-74
2022/08/10 02:20:39;;;;;;;8.07;1.30;;;17.60;99.90;;;;;;4975745;28;20169;-70
2022/08/10 02:23:11;;;;;;;3.22;1.13;;;17.70;99.90;;;;;;4973914;28;20054;-76
2022/08/10 02:25:40;;;;;;;6.88;1.58;;;17.90;99.90;;;;;;4969821;28;20130;-72
2022/08/10 02:28:08;;;;;;;8.35;2.08;;;18.10;99.70;;;;;;4977520;28;20391;-70
2022/08/10 02:30:37;;;;;;;5.25;0.98;;;18.10;99.40;;;;;;4957021;28;20018;-71
2022/08/10 02:33:05;;;;;;;4.40;0.98;;;18.20;99.90;;;;;;4963960;28;20030;-69
2022/08/10 02:35:34;;;;;;;4.25;0.90;;;18.10;99.50;;;;;;4957810;28;20185;-74
2022/08/10 02:38:05;;;;;;;4.95;1.20;;;18.10;99.20;;;;;;4971349;28;20073;-69
2022/08/10 02:40:41;;;;;;;4.53;1.15;;;18.00;99.00;;;;;;4977320;28;20030;-70
2022/08/10 02:43:33;;;;;;;7.63;1.90;;;18.30;99.30;;;;;;4976787;28;20033;-70
2022/08/10 02:46:06;;;;;;;2.97;1.00;;;18.70;98.30;;;;;;4976844;28;20049;-74
2022/08/10 02:48:47;;;;;;;7.65;1.85;;;18.80;97.60;;;;;;4977003;28;20491;-74
2022/08/10 02:51:24;;;;;;;3.40;1.50;;;18.80;98.30;;;;;;4977225;28;20022;-72
2022/08/10 02:54:02;;;;;;;6.70;1.67;;;19.30;97.50;;;;;;4975708;28;20089;-73
2022/08/10 02:56:43;;;;;;;5.22;1.67;;;20.00;96.40;;;;;;4977795;28;20033;-74
2022/08/10 02:59:23;;;;;;;4.78;1.30;;;20.50;95.10;;;;;;4976334;28;20030;-71
2022/08/10 03:01:53;;;;;;;4.28;1.55;;;20.90;95.40;;;;;;4965217;28;20029;-72
2022/08/10 03:04:33;;;;;;;8.15;2.03;;;20.60;95.10;;;;;;4976942;28;20496;-73
2022/08/10 03:07:09;;;;;;;5.03;1.30;;;20.40;95.30;;;;;;4976664;28;20486;-71
2022/08/10 03:09:40;;;;;;;2.95;1.25;;;20.30;94.90;;;;;;4977090;28;20462;-71
2022/08/10 03:12:11;;;;;;;3.95;1.30;;;20.60;94.60;;;;;;4975805;28;20030;-71
2022/08/10 03:14:40;;;;;;;12.88;1.35;;;20.50;94.70;;;;;;4976471;28;20026;-72
2022/08/10 03:17:08;;;;;;;4.25;1.38;;;20.80;94.00;;;;;;4975722;28;20369;-72
2022/08/10 03:19:36;;;;;;;5.32;1.20;;;20.70;93.50;;;;;;4976694;28;20019;-73
2022/08/10 03:22:05;;;;;;;3.17;1.10;;;21.10;93.10;;;;;;4977496;28;20036;-71
2022/08/10 03:24:34;;;;;;;2.47;1.27;;;21.60;91.80;;;;;;4977710;28;20045;-71
2022/08/10 03:27:02;;;;;;;3.72;1.65;;;21.70;90.90;;;;;;4975255;28;20029;-71
2022/08/10 03:29:32;;;;;;;2.97;0.52;;;21.90;90.90;;;;;;4977087;28;20023;-70
2022/08/10 03:32:02;;;;;;;4.10;1.05;;;22.10;90.90;;;;;;4976194;28;20384;-70
2022/08/10 03:34:31;;;;;;;3.53;0.90;;;22.80;90.40;;;;;;4957747;28;20023;-70
2022/08/10 03:36:58;;;;;;;3.90;1.23;;;23.40;89.60;;;;;;4965134;28;20161;-70
2022/08/10 03:39:26;;;;;;;10.73;1.42;;;23.80;88.50;;;;;;4975142;28;20026;-71
2022/08/10 03:41:58;;;;;;;2.63;0.60;;;23.70;86.60;;;;;;4978244;28;20018;-72
2022/08/10 03:44:32;;;;;;;4.53;1.00;;;23.70;86.20;;;;;;4956284;28;20034;-72
2022/08/10 03:47:05;;;;;;;3.03;0.90;;;23.20;87.10;;;;;;4968578;28;20177;-74
2022/08/10 03:49:36;;;;;;;3.90;1.17;;;23.20;88.00;;;;;;4975749;28;20030;-72
2022/08/10 03:52:05;;;;;;;6.35;1.27;;;23.40;87.90;;;;;;4975542;28;20019;-72
2022/08/10 03:54:33;;;;;;;3.33;0.90;;;23.80;87.30;;;;;;4956578;28;20041;-72
2022/08/10 03:57:01;;;;;;;2.70;0.50;;;24.30;86.00;;;;;;4970114;28;20053;-74
2022/08/10 03:59:30;;;;;;;2.05;0.70;;;24.20;83.30;;;;;;4975963;28;20038;-72
2022/08/10 04:01:58;;;;;;;2.35;0.57;;;24.20;83.20;;;;;;4977860;28;20156;-72
2022/08/10 04:04:26;;;;;;;3.42;0.90;;;24.20;82.80;;;;;;4968986;28;20034;-72
2022/08/10 04:06:56;;;;;;;1.17;0.40;;;24.20;82.30;;;;;;4977885;28;20022;-73
2022/08/10 04:09:28;;;;;;;1.05;0.57;;;24.10;80.90;;;;;;4974951;28;20022;-71
2022/08/10 04:11:55;;;;;;;;;;;24.00;81.90;;;;;;4979077;28;20022;-74
2022/08/10 04:14:22;;;;;;;2.40;0.82;;;24.00;80.10;;;;;;4975230;28;19914;-72
2022/08/10 04:16:49;;;;;;;1.77;0.40;;;24.00;79.20;;;;;;4977953;28;20721;-74
2022/08/10 04:19:18;;;;;;;1.63;0.50;;;24.00;78.80;;;;;;4956408;28;20030;-72
2022/08/10 04:22:08;;;;;;;3.50;1.23;;;24.00;78.80;;;;;;4959114;28;20018;-73
2022/08/10 04:24:38;;;;;;;8.30;2.88;;;24.10;78.60;;;;;;4967225;28;20495;-72
2022/08/10 04:27:06;;;;;;;4.70;1.02;;;24.30;78.00;;;;;;4981693;28;20124;-71
2022/08/10 04:29:33;;;;;;;1.30;0.50;;;24.30;77.40;;;;;;4979172;28;20064;-72
2022/08/10 04:32:04;;;;;;;1.70;0.50;;;24.40;76.90;;;;;;4979548;28;20062;-72
2022/08/10 04:34:32;;;;;;;1.00;0.30;;;24.30;76.90;;;;;;4977745;28;20050;-70
2022/08/10 04:37:03;;;;;;;0.85;0.40;;;24.40;76.80;;;;;;4980976;28;20081;-74
2022/08/10 04:39:31;;;;;;;1.48;0.47;;;24.50;76.40;;;;;;4978589;28;20472;-73
2022/08/10 04:41:59;;;;;;;1.27;0.50;;;24.60;76.00;;;;;;4979409;28;20014;-74
2022/08/10 04:44:26;;;;;;;1.02;0.52;;;24.40;76.00;;;;;;4978974;28;20041;-72
2022/08/10 04:46:54;;;;;;;2.25;0.70;;;24.60;76.50;;;;;;4977098;28;20022;-73
2022/08/10 04:49:21;;;;;;;1.50;0.70;;;24.70;75.90;;;;;;4974140;28;20026;-74
2022/08/10 04:51:48;;;;;;;0.90;0.40;;;24.60;76.30;;;;;;4976346;28;20384;-74
2022/08/10 04:54:15;;;;;;;6.07;1.42;;;24.50;76.80;;;;;;4980142;28;20718;-72
2022/08/10 04:56:43;;;;;;;1.08;0.40;;;24.70;76.50;;;;;;4976886;28;20078;-73
2022/08/10 04:59:11;;;;;;;1.70;0.50;;;24.60;76.20;;;;;;4980105;28;20081;-72
2022/08/10 05:01:39;;;;;;;0.82;0.40;;;24.30;75.90;;;;;;4977527;28;20034;-72
2022/08/10 05:04:07;;;;;;;1.35;0.40;;;23.90;75.90;;;;;;4980008;28;20014;-73
2022/08/10 05:06:34;;;;;;;3.05;0.40;;;23.30;76.00;;;;;;4980084;28;20030;-72
2022/08/10 05:09:01;;;;;;;1.67;0.40;;;22.80;77.40;;;;;;4976698;28;20868;-70
2022/08/10 05:11:29;;;;;;;3.28;0.95;;;22.10;80.40;;;;;;4978391;28;20034;-71
2022/08/10 05:13:56;;;;;;;1.05;0.40;;;21.80;82.50;;;;;;4976459;28;20026;-72
2022/08/10 05:16:24;;;;;;;4.97;0.73;;;21.90;82.50;;;;;;4978494;28;20117;-72
2022/08/10 05:18:51;;;;;;;3.50;0.60;;;22.50;81.70;;;;;;4969246;28;20126;-72
2022/08/10 05:21:18;;;;;;;3.60;0.60;;;23.00;80.30;;;;;;4957307;28;20130;-70
2022/08/10 05:23:45;;;;;;;4.05;0.68;;;23.20;81.40;;;;;;4969661;28;20026;-70
2022/08/10 05:26:13;;;;;;;5.53;0.88;;;23.30;84.20;;;;;;4964568;28;20758;-71
2022/08/10 05:28:40;;;;;;;4.78;0.77;;;23.00;84.70;;;;;;4975645;28;20375;-73
2022/08/10 05:31:07;;;;;;;5.07;0.90;;;22.80;85.70;;;;;;4991511;28;20841;-73
2022/08/10 05:33:34;;;;;;;6.32;1.83;;;23.10;84.80;;;;;;4977732;28;20267;-73
2022/08/10 05:36:02;;;;;;;1.85;0.60;;;23.20;84.40;;;;;;4975506;28;20662;-72
2022/08/10 05:38:30;;;;;;;2.38;0.50;;;23.10;83.60;;;;;;4979836;28;20026;-73
2022/08/10 05:40:59;;;;;;;1.67;0.65;;;22.90;83.60;;;;;;4977234;28;20015;-72
2022/08/10 05:43:27;;;;;;;2.50;0.60;;;22.70;84.70;;;;;;4980280;28;20133;-74
2022/08/10 05:45:54;;;;;;;2.72;0.50;;;22.80;84.40;;;;;;4977828;28;20030;-74
2022/08/10 05:48:21;;;;;;;3.05;0.60;;;22.70;82.80;;;;;;4980071;28;20506;-74
2022/08/10 05:50:49;;;;;;;2.78;0.75;;;22.40;84.10;;;;;;4976787;28;20554;-74
2022/08/10 05:53:16;;;;;;;2.80;0.50;;;22.40;84.40;;;;;;4980284;28;20113;-72
2022/08/10 05:55:43;;;;;;;3.97;0.75;;;22.90;85.20;;;;;;4978300;28;20113;-72
2022/08/10 05:58:11;;;;;;;2.92;0.50;;;23.10;84.30;;;;;;4977803;28;20541;-72
2022/08/10 06:00:42;;;;;;;2.42;0.73;;;23.10;82.70;;;;;;4978554;28;20022;-72
2022/08/10 06:03:12;;;;;;;2.78;0.63;;;23.40;81.60;;;;;;4977085;28;20030;-72
2022/08/10 06:05:43;;;;;;;1.58;0.50;;;23.30;82.40;;;;;;4977400;28;20558;-70
2022/08/10 06:08:18;;;;;;;2.25;0.40;;;22.90;82.30;;;;;;4976414;28;20085;-71
2022/08/10 06:10:48;;;;;;;1.70;0.40;;;22.40;83.80;;;;;;4977840;28;20124;-73
2022/08/10 06:16:12;;;;;;;3.25;0.52;;;21.00;87.60;;;;;;4977028;28;20055;-75
2022/08/10 06:18:39;;;;;;;4.18;0.80;;;19.90;90.30;;;;;;4978817;28;20022;-75
2022/08/10 06:21:08;;;;;;;4.95;1.38;;;19.30;91.50;;;;;;4976045;28;20030;-71
2022/08/10 06:23:38;;;;;;;3.08;1.30;;;18.50;92.80;;;;;;4978553;28;20494;-71
2022/08/10 06:26:07;;;;;;;4.45;1.55;;;18.10;93.80;;;;;;4977527;28;20399;-71
2022/08/10 06:28:39;;;;;;;4.90;1.42;;;17.70;94.80;;;;;;4978861;28;20034;-73
2022/08/10 06:31:08;;;;;;;5.25;0.88;;;17.50;95.60;;;;;;4977176;28;20029;-71
2022/08/10 06:33:38;;;;;;;3.35;1.20;;;17.60;96.40;;;;;;4977926;28;20030;-72
2022/08/10 06:36:07;;;;;;;2.83;0.98;;;17.80;95.90;;;;;;4972118;28;20026;-71
2022/08/10 06:38:37;;;;;;;7.43;1.33;;;17.90;95.90;;;;;;4958445;28;20027;-73
2022/08/10 06:41:12;;;;;;;3.00;0.80;;;18.00;96.30;;;;;;4957397;28;20027;-71
2022/08/10 06:43:44;;;;;;;4.07;1.02;;;17.90;96.20;;;;;;4958590;28;20030;-71
2022/08/10 06:46:16;;;;;;;4.47;1.48;;;17.90;96.40;;;;;;4964749;28;20030;-71
2022/08/10 06:48:53;;;;;;;4.07;1.27;;;17.90;96.50;;;;;;4975808;28;20781;-73
2022/08/10 06:51:31;;;;;;;4.72;1.38;;;17.80;95.90;;;;;;4974746;28;20112;-72
2022/08/10 06:54:04;;;;;;;3.38;0.90;;;17.50;95.70;;;;;;4975517;28;20057;-73
2022/08/10 06:56:35;;;;;;;3.08;0.90;;;17.30;96.10;;;;;;4977784;28;20033;-72
2022/08/10 06:59:19;;;;;;;2.47;0.70;;;17.00;95.90;;;;;;4971490;28;20675;-74
2022/08/10 07:01:53;;;;;;;3.28;1.02;;;16.60;96.80;;;;;;4975500;28;20080;-72
2022/08/10 07:04:34;;;;;;;4.70;1.33;;;16.30;97.40;;;;;;4975503;28;20399;-72
2022/08/10 07:07:04;;;;;;;6.32;2.95;;;16.00;98.00;;;;;;4988894;28;20049;-72
2022/08/10 07:09:38;;;;;;;4.05;2.17;;;15.80;98.30;;;;;;4975141;28;20405;-71
2022/08/10 07:12:08;;;;;;;4.65;1.10;;;15.60;98.70;;;;;;4975312;28;20261;-73
2022/08/10 07:14:42;;;;;;;4.30;1.83;;;15.40;99.10;;;;;;4976262;28;20023;-73
2022/08/10 07:17:13;;;;;;;1.88;1.48;;;15.30;99.40;;;;;;4975927;28;20030;-73
2022/08/10 07:19:42;;;;;;;5.03;1.23;;;15.10;99.60;;;;;;4976404;28;20022;-74
2022/08/10 07:22:10;;;;;;;5.50;1.67;;;15.00;99.80;;;;;;4975166;28;20121;-71
2022/08/10 07:24:40;;;;;;;6.90;1.67;;;15.00;99.90;;;;;;4975645;28;20689;-72
2022/08/10 07:27:09;;;;;;;4.40;1.50;;;15.00;99.90;;;;;;4975268;28;20083;-72
2022/08/10 07:29:39;;;;;;;8.70;1.83;;;15.00;99.90;;;;;;4964905;28;20026;-74
2022/08/10 07:32:08;;;;;;;3.78;1.85;;;14.90;99.90;;;;;;4975089;28;20023;-74
2022/08/10 07:34:37;;;;;;;12.13;4.20;;;14.80;99.90;;;;;;4975185;28;20037;-71
2022/08/10 07:37:07;;;;;;;10.70;4.75;;;14.80;99.90;;;;;;4975960;28;20026;-74
2022/08/10 07:39:37;;;;;;;10.48;5.28;;;14.80;99.90;;;;;;4970999;28;20030;-75
2022/08/10 07:42:09;;;;;;;7.75;3.92;;;14.80;99.90;;;;;;4975112;28;20109;-73
2022/08/10 07:44:41;;;;;;;6.28;2.95;;;14.80;99.90;;;;;;4971832;28;20435;-73
2022/08/10 07:47:15;;;;;;;8.68;2.42;;;14.70;99.90;;;;;;4974428;28;20030;-72
2022/08/10 07:49:46;;;;;;;6.18;2.38;;;14.70;99.90;;;;;;4974731;28;20479;-71
2022/08/10 07:52:13;;;;;;;8.50;2.38;;;14.60;99.90;;;;;;4975155;28;20047;-73
2022/08/10 07:54:44;;;;;;;7.22;2.30;;;14.50;99.90;;;;;;4975560;28;20097;-73
2022/08/10 07:57:20;;;;;;;6.20;1.88;;;14.50;99.90;;;;;;4974109;28;20092;-73
2022/08/10 08:00:05;;;;;;;4.13;1.30;;;14.40;99.90;;;;;;4976528;28;20031;-74
2022/08/10 08:02:57;;;;;;;6.38;2.05;;;14.40;99.90;;;;;;4980569;28;20057;-72
2022/08/10 08:05:33;;;;;;;6.47;2.22;;;14.40;99.90;;;;;;4978767;28;20088;-73
2022/08/10 08:08:01;;;;;;;6.95;2.38;;;14.30;99.90;;;;;;4980151;28;20105;-72
2022/08/10 08:10:30;;;;;;;7.57;2.85;;;14.30;99.90;;;;;;4978878;28;20357;-75
2022/08/10 08:13:00;;;;;;;13.95;5.88;;;14.10;99.90;;;;;;4979749;28;20464;-72
2022/08/10 08:15:29;;;;;;;10.20;3.83;;;14.10;99.90;;;;;;4977041;28;20045;-74
2022/08/10 08:17:57;;;;;;;5.95;3.00;;;14.10;99.90;;;;;;4976754;28;20388;-76
2022/08/10 08:20:26;;;;;;;7.88;3.05;;;14.00;99.90;;;;;;4977589;28;20089;-73
2022/08/10 08:22:54;;;;;;;5.45;2.10;;;13.90;99.90;;;;;;4978529;28;20022;-73
2022/08/10 08:25:23;;;;;;;6.53;2.58;;;13.90;99.90;;;;;;4977913;28;20502;-73
2022/08/10 08:27:55;;;;;;;5.90;3.17;;;13.80;99.90;;;;;;4978227;28;20037;-71
2022/08/10 08:30:23;;;;;;;7.18;2.45;;;13.70;99.90;;;;;;4978215;28;20506;-73
2022/08/10 08:32:51;;;;;;;8.68;3.10;;;13.60;99.90;;;;;;4979235;28;20387;-74
2022/08/10 08:35:21;;;;;;;7.75;2.47;;;13.60;99.90;;;;;;4978288;28;20758;-71
2022/08/10 08:37:51;;;;;;;7.32;3.28;;;13.60;99.90;;;;;;4978881;28;20431;-73
2022/08/10 08:40:35;;;;;;;8.48;2.97;;;13.50;99.90;;;;;;4978472;28;20476;-72
2022/08/10 08:43:39;;;;;;;7.35;3.05;;;13.50;99.90;;;;;;4979562;28;20154;-71
2022/08/10 08:46:33;;;;;;;7.43;2.60;;;13.50;99.90;;;;;;4979383;28;20050;-72
2022/08/10 08:49:10;;;;;;;10.95;3.03;;;13.50;99.90;;;;;;4979421;28;20885;-73
2022/08/10 08:52:24;;;;;;;8.27;3.00;;;13.60;99.90;;;;;;4978416;28;20093;-72
2022/08/10 08:55:03;;;;;;;9.88;4.25;;;13.50;99.90;;;;;;4978394;28;20030;-73
2022/08/10 08:57:51;;;;;;;8.38;4.13;;;13.50;99.90;;;;;;4978429;28;20057;-71
2022/08/10 09:01:02;;;;;;;9.57;2.83;;;13.60;99.90;;;;;;4991418;28;20023;-73
2022/08/10 09:03:54;;;;;;;7.15;4.05;;;13.50;99.90;;;;;;4986366;28;20047;-72
2022/08/10 09:06:43;;;;;;;8.32;3.75;;;13.60;99.90;;;;;;4966876;28;20034;-73
2022/08/10 09:09:16;;;;;;;9.18;3.72;;;13.70;99.90;;;;;;4979082;28;20034;-70
2022/08/10 09:12:08;;;;;;;9.30;5.22;;;13.70;99.90;;;;;;4977346;28;20502;-71
2022/08/10 09:14:51;;;;;;;11.05;4.50;;;13.70;99.90;;;;;;4978772;28;20027;-72
2022/08/10 09:17:53;;;;;;;10.90;5.22;;;13.70;99.90;;;;;;4980274;28;20022;-73
2022/08/10 09:20:49;;;;;;;10.88;4.35;;;13.70;99.90;;;;;;4997971;28;20034;-71
2022/08/10 09:23:44;;;;;;;12.35;5.25;;;13.70;99.90;;;;;;4970351;28;20428;-73
2022/08/10 09:26:21;;;;;;;13.68;3.92;;;13.60;99.90;;;;;;4977648;28;20045;-73
2022/08/10 09:28:54;;;;;;;9.07;4.22;;;13.60;99.90;;;;;;4980234;28;20026;-72
2022/08/10 09:31:24;;;;;;;8.93;3.90;;;13.60;99.90;;;;;;4979013;28;20018;-74
2022/08/10 09:34:32;;;;;;;10.90;4.03;;;13.70;99.90;;;;;;4980268;28;20517;-73
2022/08/10 09:36:59;;;;;;;9.65;4.97;;;13.60;99.90;;;;;;4983389;28;20641;-71
2022/08/10 09:39:27;;;;;;;13.27;4.95;;;13.60;99.90;;;;;;4970627;28;20035;-72
2022/08/10 09:42:22;;;;;;;10.27;4.75;;;13.60;99.90;;;;;;4974289;28;20027;-74
2022/08/10 09:45:13;;;;;;;15.70;4.75;;;13.60;99.90;;;;;;4977616;28;20069;-74
2022/08/10 09:47:56;;;;;;;10.48;4.95;;;13.60;99.90;;;;;;4975809;28;20382;-70
2022/08/10 09:50:47;;;;;;;10.70;5.53;;;13.60;99.90;;;;;;4959653;28;20026;-72
2022/08/10 09:53:35;;;;;;;14.65;7.78;;;13.50;99.90;;;;;;4974300;28;20018;-71
2022/08/10 09:56:21;;;;;;;12.52;7.32;;;13.50;99.90;;;;;;4977964;28;20023;-72
2022/08/10 09:59:07;;;;;;;11.32;6.28;;;13.50;99.90;;;;;;4977528;28;20069;-74
2022/08/10 10:01:55;;;;;;;10.48;5.05;;;13.50;99.90;;;;;;4969566;28;20109;-78
2022/08/10 10:04:29;;;;;;;10.30;5.00;;;13.40;99.90;;;;;;4958682;28;20106;-72
2022/08/10 10:07:03;;;;;;;13.57;6.53;;;13.40;99.90;;;;;;4972989;28;20033;-72
2022/08/10 10:09:49;;;;;;;13.15;6.82;;;13.40;99.90;;;;;;4973033;28;20030;-71
2022/08/10 10:12:52;;;;;;;12.13;6.03;;;13.30;99.90;;;;;;4972106;28;20029;-73
2022/08/10 10:15:37;;;;;;;16.08;5.88;;;13.30;99.90;;;;;;4970214;28;20046;-72
2022/08/10 10:18:29;;;;;;;12.73;7.30;;;13.20;99.90;;;;;;4976526;28;20037;-70
2022/08/10 10:21:15;;;;;;;14.57;6.32;;;13.20;99.90;;;;;;4976751;28;20498;-69
2022/08/10 10:23:42;;;;;;;12.85;6.07;;;13.10;99.90;;;;;;4977254;28;20530;-71
2022/08/10 10:26:31;;;;;;;11.20;5.93;;;13.00;99.90;;;;;;4976685;28;20125;-72
2022/08/10 10:29:09;;;;;;;12.55;5.95;;;13.00;99.90;;;;;;4976466;28;20041;-70
2022/08/10 10:32:00;;;;;;;12.65;5.45;;;13.00;99.90;;;;;;4964297;28;20018;-70
2022/08/10 10:34:43;;;;;;;13.98;6.25;;;12.90;99.90;;;;;;4976820;28;20030;-75
2022/08/10 10:37:11;;;;;;;18.45;7.78;;;12.90;99.90;;;;;;4975935;28;20027;-75
2022/08/10 10:39:46;;;;;;;11.95;6.72;;;12.90;99.90;;;;;;4974925;28;20424;-70
2022/08/10 10:42:31;;;;;;;12.57;6.30;;;12.80;99.90;;;;;;4977260;28;20030;-73
2022/08/10 10:45:11;;;;;;;12.80;6.20;;;12.80;99.90;;;;;;4976247;28;20044;-71
2022/08/10 10:47:47;;;;;;;11.65;6.35;;;12.70;99.90;;;;;;4975413;28;20030;-72
2022/08/10 10:50:54;;;;;;;14.48;6.38;;;12.60;99.90;;;;;;4976255;28;20019;-70
2022/08/10 10:53:31;;;;;;;10.20;5.82;;;12.60;99.90;;;;;;4989305;28;20034;-70
2022/08/10 10:56:10;;;;;;;10.63;5.90;;;12.60;99.90;;;;;;4976208;28;20027;-68
2022/08/10 10:58:46;;;;;;;15.13;9.95;;;12.50;99.90;;;;;;4976609;28;20047;-69
2022/08/10 11:01:45;;;;;;;15.52;8.65;;;12.50;99.90;;;;;;4963731;28;20023;-71
2022/08/10 11:04:25;;;;;;;14.20;8.05;;;12.40;99.90;;;;;;4976319;28;20795;-69
2022/08/10 11:07:22;;;;;;;14.10;8.45;;;12.40;99.90;;;;;;4977673;28;20088;-68
2022/08/10 11:10:01;;;;;;;15.77;9.23;;;12.30;99.90;;;;;;4977091;28;20034;-67
2022/08/10 11:12:42;;;;;;;15.75;9.10;;;12.30;99.90;;;;;;4975959;28;20089;-73
2022/08/10 11:15:35;;;;;;;15.07;10.40;;;12.20;99.90;;;;;;4976817;28;20022;-71
2022/08/10 11:18:22;;;;;;;11.60;8.07;;;12.20;99.90;;;;;;4976191;28;20097;-72
2022/08/10 11:21:02;;;;;;;15.70;7.95;;;12.10;99.90;;;;;;4976835;28;20034;-70
2022/08/10 11:23:49;;;;;;;12.45;7.70;;;12.10;99.90;;;;;;4976312;28;20141;-70
2022/08/10 11:26:50;;;;;;;14.27;7.18;;;12.00;99.90;;;;;;4975729;28;20042;-73
2022/08/10 11:29:31;;;;;;;16.95;8.02;;;12.00;99.90;;;;;;4975090;28;20015;-75
2022/08/10 11:32:33;;;;;;;13.55;8.13;;;12.00;99.90;;;;;;4975946;28;20037;-69
2022/08/10 11:35:44;;;;;;;13.77;7.28;;;12.00;99.90;;;;;;4977533;28;20033;-68
2022/08/10 11:38:11;;;;;;;12.73;7.93;;;12.00;99.90;;;;;;4983431;28;20192;-70
2022/08/10 11:41:08;;;;;;;15.68;8.13;;;11.90;99.90;;;;;;4968057;28;20022;-68
2022/08/10 11:43:44;;;;;;;13.90;7.45;;;11.90;99.90;;;;;;4960601;28;20048;-69
2022/08/10 11:46:47;;;;;;;12.80;7.28;;;11.80;99.90;;;;;;4964974;28;20030;-69
2022/08/10 11:49:45;;;;;;;15.07;8.52;;;11.90;99.90;;;;;;4982346;28;20132;-69
2022/08/10 11:52:35;;;;;;;10.50;7.10;;;11.90;99.90;;;;;;4980588;28;20101;-69
2022/08/10 11:55:23;;;;;;;13.23;7.35;;;11.80;99.90;;;;;;4980501;28;20038;-70
2022/08/10 11:57:57;;;;;;;11.65;6.70;;;11.80;99.90;;;;;;4980007;28;20648;-68
2022/08/10 12:00:29;;;;;;;12.77;7.03;;;11.70;99.90;;;;;;4980602;28;20026;-69
2022/08/10 12:03:01;;;;;;;13.00;7.63;;;11.80;99.90;;;;;;4980908;28;20034;-70
2022/08/10 12:05:33;;;;;;;9.40;6.57;;;11.70;99.90;;;;;;4980066;28;20454;-70
2022/08/10 12:08:00;;;;;;;;;;;11.60;99.90;;;;;;4981767;28;20542;-70
2022/08/10 12:10:33;;;;;;;11.73;7.03;;;11.60;99.90;;;;;;4980303;28;19905;-71
2022/08/10 12:13:23;;;;;;;11.32;6.63;;;11.60;99.90;;;;;;4980440;28;20026;-69
2022/08/10 12:15:54;;;;;;;13.77;6.82;;;11.50;99.90;;;;;;4979583;28;20019;-70
2022/08/10 12:18:46;;;;;;;18.70;10.70;;;11.50;99.90;;;;;;4979508;28;20030;-70
2022/08/10 12:21:46;;;;;;;21.70;13.57;;;11.40;99.90;;;;;;4987846;28;20042;-69
2022/08/10 12:24:39;;;;;;;21.27;14.50;;;11.40;99.90;;;;;;4979847;28;20113;-71
2022/08/10 12:27:16;;;;;;;16.85;12.85;;;11.40;99.90;;;;;;4979742;28;20038;-71
2022/08/10 12:29:58;;;;;;;25.55;16.15;;;11.40;99.90;;;;;;4979035;28;20741;-69
2022/08/10 12:32:55;;;;;;;25.00;14.33;;;11.40;99.90;;;;;;4979218;28;20049;-70
2022/08/10 12:35:34;;;;;;;23.23;14.13;;;11.40;99.90;;;;;;4979338;28;20302;-71
2022/08/10 12:38:20;;;;;;;24.60;13.90;;;11.40;99.90;;;;;;4980587;28;20026;-69
2022/08/10 12:40:58;;;;;;;15.52;12.75;;;11.40;99.90;;;;;;4979670;28;20218;-68
2022/08/10 12:43:52;;;;;;;21.77;13.68;;;11.40;99.90;;;;;;4978874;28;20434;-75
2022/08/10 12:46:48;;;;;;;18.67;12.85;;;11.30;99.90;;;;;;4985602;28;20061;-68
2022/08/10 12:49:34;;;;;;;18.73;13.43;;;11.30;99.90;;;;;;4978733;28;20026;-74
2022/08/10 12:52:13;;;;;;;21.15;12.95;;;11.20;99.90;;;;;;4959724;28;20031;-70
2022/08/10 12:54:42;;;;;;;16.00;12.07;;;11.20;99.90;;;;;;4960167;28;20022;-76
2022/08/10 12:57:11;;;;;;;17.88;11.82;;;11.20;99.90;;;;;;4971442;28;20507;-75
2022/08/10 12:59:45;;;;;;;16.80;11.43;;;11.20;99.90;;;;;;4979478;28;20069;-74
2022/08/10 13:02:19;;;;;;;18.52;11.48;;;11.20;99.90;;;;;;4978825;28;20027;-69
2022/08/10 13:04:51;;;;;;;15.07;10.57;;;11.10;99.90;;;;;;4976849;28;20318;-71
2022/08/10 13:07:33;;;;;;;17.63;10.48;;;11.10;99.90;;;;;;4978400;28;20027;-70
2022/08/10 13:10:19;;;;;;;18.30;10.82;;;11.10;99.90;;;;;;4979541;28;20272;-71
2022/08/10 13:12:50;;;;;;;15.68;9.95;;;11.00;99.90;;;;;;4978587;28;20049;-72
2022/08/10 13:15:28;;;;;;;16.13;10.98;;;11.00;99.90;;;;;;4979055;28;20072;-73
2022/08/10 13:18:01;;;;;;;16.88;10.73;;;11.00;99.90;;;;;;4979048;28;20029;-74
2022/08/10 13:20:33;;;;;;;16.75;10.43;;;11.00;99.90;;;;;;4979333;28;20125;-73
2022/08/10 13:23:05;;;;;;;16.73;10.05;;;11.00;99.90;;;;;;4979539;28;20031;-70
2022/08/10 13:25:38;;;;;;;15.43;9.95;;;10.90;99.90;;;;;;4977951;28;20682;-70
2022/08/10 13:28:13;;;;;;;14.50;10.00;;;10.90;99.90;;;;;;4978781;28;20479;-75
2022/08/10 13:30:42;;;;;;;23.60;11.75;;;10.90;99.90;;;;;;4978313;28;20034;-69
2022/08/10 13:33:12;;;;;;;15.80;9.95;;;10.90;99.90;;;;;;4978864;28;20023;-70